createdAt,value
2023-02-01T00:00:05.867Z,85.55
2023-02-01T00:02:33.343Z,86.78
2023-02-01T00:05:00.873Z,88.32
2023-02-01T00:07:28.265Z,87.92
2023-02-01T00:09:57.019Z,88.85
2023-02-01T00:12:24.446Z,87.00
2023-02-01T00:14:51.843Z,86.39
2023-02-01T00:17:19.601Z,85.14
2023-02-01T00:19:47.032Z,83.79
2023-02-01T00:22:14.441Z,85.21
2023-02-01T00:24:42.108Z,83.58
2023-02-01T00:27:10.822Z,83.05
2023-02-01T00:29:38.215Z,83.86
2023-02-01T00:32:06.080Z,85.24
2023-02-01T00:34:33.528Z,85.26
2023-02-01T00:37:01.236Z,84.35
2023-02-01T00:39:28.649Z,82.96
2023-02-01T00:41:56.066Z,82.22
2023-02-01T00:44:24.981Z,83.07
2023-02-01T00:46:52.484Z,84.92
2023-02-01T00:49:19.933Z,84.85
2023-02-01T00:51:47.365Z,83.22
2023-02-01T00:54:14.836Z,81.92
2023-02-01T00:56:42.228Z,82.25
2023-02-01T00:59:12.408Z,82.44
2023-02-01T01:01:41.400Z,83.10
2023-02-01T01:04:08.990Z,82.72
2023-02-01T01:06:36.869Z,82.58
2023-02-01T01:09:07.169Z,81.54
2023-02-01T01:11:37.593Z,81.23
2023-02-01T01:14:06.844Z,83.30
2023-02-01T01:16:35.127Z,83.73
2023-02-01T01:19:04.374Z,84.91
2023-02-01T01:21:32.248Z,85.50
2023-02-01T01:23:59.651Z,86.67
2023-02-01T01:26:28.577Z,83.09
2023-02-01T01:28:57.335Z,83.34
2023-02-01T01:31:25.605Z,84.93
2023-02-01T01:33:54.713Z,83.90
2023-02-01T01:36:24.061Z,85.66
2023-02-01T01:38:52.100Z,85.50
2023-02-01T01:41:21.862Z,85.24
2023-02-01T01:43:55.196Z,84.20
2023-02-01T01:46:24.518Z,83.08
2023-02-01T01:49:01.201Z,84.98
2023-02-01T01:51:32.297Z,83.47
2023-02-01T01:54:06.082Z,83.41
2023-02-01T01:56:35.880Z,82.99
2023-02-01T01:59:04.319Z,82.84
2023-02-01T02:01:31.786Z,82.40
2023-02-01T02:04:00.587Z,83.43
2023-02-01T02:06:36.867Z,82.99
2023-02-01T02:09:06.990Z,82.94
2023-02-01T02:11:34.782Z,83.01
2023-02-01T02:14:03.139Z,82.73
2023-02-01T02:16:44.010Z,82.01
2023-02-01T02:19:30.838Z,84.44
2023-02-01T02:22:19.971Z,83.54
2023-02-01T02:25:25.467Z,83.35
2023-02-01T02:28:03.192Z,82.54
2023-02-01T02:30:42.642Z,81.47
2023-02-01T02:33:43.607Z,82.21
2023-02-01T02:36:19.580Z,81.84
2023-02-01T02:38:54.408Z,82.72
2023-02-01T02:41:46.747Z,82.98
2023-02-01T02:44:38.330Z,82.48
2023-02-01T02:47:28.674Z,81.77
2023-02-01T02:50:30.608Z,84.19
2023-02-01T02:53:23.352Z,81.82
2023-02-01T02:55:53.013Z,83.55
2023-02-01T02:58:41.020Z,82.64
2023-02-01T03:01:26.450Z,82.02
2023-02-01T03:04:10.562Z,79.91
2023-02-01T03:06:40.684Z,80.42
2023-02-01T03:09:14.099Z,84.27
2023-02-01T03:12:05.145Z,83.76
2023-02-01T03:14:36.891Z,81.80
2023-02-01T03:17:10.349Z,80.28
2023-02-01T03:19:44.494Z,80.75
2023-02-01T03:22:17.341Z,81.67
2023-02-01T03:24:47.892Z,80.69
2023-02-01T03:27:20.168Z,80.02
2023-02-01T03:29:51.952Z,81.15
2023-02-01T03:32:19.619Z,82.33
2023-02-01T03:34:47.733Z,80.59
2023-02-01T03:37:21.420Z,82.47
2023-02-01T03:39:55.182Z,79.70
2023-02-01T03:42:29.511Z,82.19
2023-02-01T03:45:03.498Z,83.33
2023-02-01T03:47:36.275Z,80.70
2023-02-01T03:50:07.735Z,81.52
2023-02-01T03:52:42.214Z,80.96
2023-02-01T03:55:11.898Z,82.09
2023-02-01T03:57:45.201Z,83.94
2023-02-01T04:00:19.264Z,82.16
2023-02-01T04:02:46.807Z,84.11
2023-02-01T04:05:14.300Z,82.95
2023-02-01T04:07:43.286Z,83.38
2023-02-01T04:10:12.038Z,84.02
2023-02-01T04:12:40.580Z,82.04
2023-02-01T04:15:09.474Z,81.30
2023-02-01T04:20:03.602Z,81.87
2023-02-01T04:22:31.045Z,82.90
2023-02-01T04:24:59.887Z,80.34
2023-02-01T04:27:27.310Z,79.65
2023-02-01T04:29:56.360Z,79.90
2023-02-01T04:32:25.187Z,80.74
2023-02-01T04:34:52.915Z,81.78
2023-02-01T04:37:20.454Z,83.91
2023-02-01T04:39:47.936Z,81.00
2023-02-01T04:42:16.669Z,80.88
2023-02-01T04:44:44.164Z,80.70
2023-02-01T04:47:12.580Z,79.72
2023-02-01T04:49:40.106Z,81.34
2023-02-01T04:52:07.590Z,79.23
2023-02-01T04:54:35.250Z,83.54
2023-02-01T04:57:02.780Z,81.52
2023-02-01T04:59:31.533Z,80.31
2023-02-01T05:01:58.932Z,78.67
2023-02-01T05:04:26.683Z,79.99
2023-02-01T05:06:54.120Z,81.97
2023-02-01T05:09:22.787Z,81.58
2023-02-01T05:12:08.354Z,80.60
2023-02-01T05:14:37.210Z,80.58
2023-02-01T05:17:04.669Z,79.93
2023-02-01T05:19:32.123Z,79.90
2023-02-01T05:21:59.572Z,79.13
2023-02-01T05:24:28.078Z,81.70
2023-02-01T05:26:55.537Z,80.60
2023-02-01T05:29:22.992Z,78.21
2023-02-01T05:31:51.820Z,78.75
2023-02-01T05:34:19.417Z,80.78
2023-02-01T05:36:46.890Z,79.56
2023-02-01T05:39:14.420Z,79.93
2023-02-01T05:41:42.031Z,78.48
2023-02-01T05:44:09.510Z,80.29
2023-02-01T05:46:37.627Z,79.08
2023-02-01T05:49:06.845Z,78.32
2023-02-01T05:51:34.454Z,80.34
2023-02-01T05:54:01.970Z,81.70
2023-02-01T05:56:29.459Z,78.95
2023-02-01T05:58:56.887Z,79.45
2023-02-01T06:01:24.306Z,78.62
2023-02-01T06:03:51.823Z,79.30
2023-02-01T06:06:20.852Z,79.74
2023-02-01T06:08:48.297Z,81.17
2023-02-01T06:11:30.644Z,80.60
2023-02-01T06:13:59.854Z,82.42
2023-02-01T06:16:27.841Z,81.15
2023-02-01T06:18:55.690Z,81.84
2023-02-01T06:21:25.369Z,79.82
2023-02-01T06:23:52.989Z,81.82
2023-02-01T06:26:21.080Z,81.89
2023-02-01T06:28:48.820Z,81.32
2023-02-01T06:31:16.483Z,84.16
2023-02-01T06:33:43.959Z,87.52
2023-02-01T06:36:13.138Z,84.04
2023-02-01T06:38:41.917Z,83.76
2023-02-01T06:41:09.633Z,84.44
2023-02-01T06:43:38.174Z,81.39
2023-02-01T06:46:09.095Z,84.13
2023-02-01T06:48:36.888Z,83.65
2023-02-01T06:51:04.612Z,84.02
2023-02-01T06:53:32.385Z,81.84
2023-02-01T06:56:02.648Z,82.40
2023-02-01T06:58:31.568Z,85.30
2023-02-01T07:00:59.223Z,82.06
2023-02-01T07:03:26.674Z,81.64
2023-02-01T07:05:57.771Z,78.29
2023-02-01T07:08:25.333Z,79.76
2023-02-01T07:10:52.789Z,82.56
2023-02-01T07:13:21.692Z,80.48
2023-02-01T07:15:49.388Z,78.23
2023-02-01T07:18:17.301Z,79.45
2023-02-01T07:20:44.802Z,79.26
2023-02-01T07:23:12.583Z,80.65
2023-02-01T07:25:39.989Z,80.67
2023-02-01T07:28:07.428Z,80.64
2023-02-01T07:30:36.309Z,84.22
2023-02-01T07:33:03.799Z,84.46
2023-02-01T07:35:31.607Z,81.88
2023-02-01T07:37:59.459Z,82.67
2023-02-01T07:40:29.693Z,81.96
2023-02-01T07:42:57.318Z,84.26
2023-02-01T07:45:25.125Z,87.11
2023-02-01T07:47:55.030Z,87.52
2023-02-01T07:50:22.909Z,88.67
2023-02-01T07:52:50.663Z,89.07
2023-02-01T07:55:18.192Z,90.58
2023-02-01T07:57:45.630Z,86.60
2023-02-01T08:00:31.936Z,85.10
2023-02-01T08:03:01.270Z,87.75
2023-02-01T08:05:29.684Z,86.60
2023-02-01T08:07:57.218Z,86.79
2023-02-01T08:10:24.952Z,87.47
2023-02-01T08:12:52.946Z,86.68
2023-02-01T08:15:20.541Z,86.96
2023-02-01T08:17:49.084Z,86.37
2023-02-01T08:20:18.653Z,84.02
2023-02-01T08:22:46.397Z,86.53
2023-02-01T08:25:13.865Z,86.08
2023-02-01T08:27:41.333Z,88.65
2023-02-01T08:30:10.253Z,89.77
2023-02-01T08:32:37.806Z,90.86
2023-02-01T08:35:06.024Z,91.23
2023-02-01T08:37:34.840Z,91.31
2023-02-01T08:40:02.629Z,89.47
2023-02-01T08:42:47.741Z,89.63
2023-02-01T08:45:15.640Z,89.34
2023-02-01T08:47:43.066Z,92.32
2023-02-01T08:50:11.865Z,92.41
2023-02-01T08:52:40.822Z,93.98
2023-02-01T08:55:09.162Z,95.65
2023-02-01T08:57:36.685Z,95.66
2023-02-01T09:00:06.365Z,97.68
2023-02-01T09:02:33.831Z,95.97
2023-02-01T09:05:01.284Z,96.28
2023-02-01T09:07:28.753Z,95.27
2023-02-01T09:10:01.053Z,95.97
2023-02-01T09:12:29.071Z,95.72
2023-02-01T09:14:56.916Z,96.17
2023-02-01T09:17:24.838Z,96.65
2023-02-01T09:19:52.257Z,96.33
2023-02-01T09:22:19.809Z,96.70
2023-02-01T09:24:47.294Z,96.49
2023-02-01T09:27:16.117Z,97.28
2023-02-01T09:29:44.099Z,94.68
2023-02-01T09:32:11.840Z,93.13
2023-02-01T09:34:39.552Z,94.98
2023-02-01T09:37:07.069Z,94.57
2023-02-01T09:39:34.492Z,93.27
2023-02-01T09:42:15.019Z,92.60
2023-02-01T09:45:00.574Z,93.64
2023-02-01T09:47:28.617Z,94.46
2023-02-01T09:50:01.582Z,94.89
2023-02-01T09:52:36.218Z,93.07
2023-02-01T09:55:08.993Z,93.06
2023-02-01T09:57:46.566Z,93.15
2023-02-01T10:00:25.308Z,91.69
2023-02-01T10:02:55.053Z,91.06
2023-02-01T10:05:36.442Z,92.25
2023-02-01T10:08:09.293Z,93.76
2023-02-01T10:10:45.647Z,93.67
2023-02-01T10:13:32.182Z,95.64
2023-02-01T10:16:14.228Z,95.21
2023-02-01T10:19:04.746Z,92.79
2023-02-01T10:21:48.686Z,94.24
2023-02-01T10:24:27.144Z,93.86
2023-02-01T10:27:01.703Z,95.13
2023-02-01T10:29:36.133Z,95.44
2023-02-01T10:32:11.997Z,94.80
2023-02-01T10:34:39.459Z,92.43
2023-02-01T10:37:20.344Z,93.17
2023-02-01T10:39:49.667Z,92.61
2023-02-01T10:42:17.311Z,92.43
2023-02-01T10:44:48.992Z,91.30
2023-02-01T10:47:17.810Z,92.30
2023-02-01T10:49:51.877Z,91.12
2023-02-01T10:52:23.414Z,92.20
2023-02-01T10:54:50.965Z,93.10
2023-02-01T10:57:26.571Z,92.19
2023-02-01T10:59:54.629Z,92.62
2023-02-01T11:02:28.853Z,92.18
2023-02-01T11:05:02.822Z,87.89
2023-02-01T11:07:30.832Z,88.34
2023-02-01T11:09:59.048Z,88.21
2023-02-01T11:12:32.713Z,90.04
2023-02-01T11:15:03.920Z,88.54
2023-02-01T11:17:37.248Z,91.31
2023-02-01T11:20:14.268Z,91.28
2023-02-01T11:22:47.856Z,87.90
2023-02-01T11:25:18.335Z,88.07
2023-02-01T11:27:54.730Z,89.03
2023-02-01T11:30:33.596Z,86.47
2023-02-01T11:33:06.309Z,87.64
2023-02-01T11:35:35.860Z,85.15
2023-02-01T11:38:15.772Z,88.91
2023-02-01T11:40:43.339Z,89.49
2023-02-01T11:43:20.398Z,87.33
2023-02-01T11:45:57.521Z,88.91
2023-02-01T11:48:29.338Z,86.56
2023-02-01T11:51:15.464Z,87.00
2023-02-01T11:53:59.206Z,84.24
2023-02-01T11:56:32.299Z,83.29
2023-02-01T11:59:13.457Z,85.54
2023-02-01T12:01:57.637Z,85.86
2023-02-01T12:04:59.748Z,83.54
2023-02-01T12:07:41.964Z,83.05
2023-02-01T12:10:23.165Z,83.68
2023-02-01T12:13:01.637Z,82.66
2023-02-01T12:15:48.254Z,82.64
2023-02-01T12:18:38.653Z,85.44
2023-02-01T12:21:19.617Z,85.38
2023-02-01T12:23:59.204Z,84.52
2023-02-01T12:26:48.425Z,83.60
2023-02-01T12:29:28.038Z,82.69
2023-02-01T12:32:22.491Z,84.95
2023-02-01T12:35:11.018Z,83.76
2023-02-01T12:37:56.606Z,83.75
2023-02-01T12:40:38.499Z,85.08
2023-02-01T12:43:11.536Z,84.89
2023-02-01T12:45:44.141Z,84.14
2023-02-01T12:48:27.969Z,84.37
2023-02-01T12:51:00.184Z,83.84
2023-02-01T12:53:35.677Z,85.36
2023-02-01T12:56:08.091Z,81.40
2023-02-01T12:58:42.732Z,83.32
2023-02-01T13:01:17.185Z,80.97
2023-02-01T13:03:52.115Z,82.77
2023-02-01T13:06:23.747Z,81.04
2023-02-01T13:08:58.674Z,83.45
2023-02-01T13:11:31.093Z,82.84
2023-02-01T13:14:05.194Z,83.12
2023-02-01T13:16:35.849Z,81.71
2023-02-01T13:19:12.375Z,81.68
2023-02-01T13:21:45.055Z,80.77
2023-02-01T13:24:29.841Z,80.89
2023-02-01T13:26:57.927Z,81.07
2023-02-01T13:29:26.844Z,80.34
2023-02-01T13:32:11.445Z,78.67
2023-02-01T13:35:00.927Z,80.10
2023-02-01T13:37:53.846Z,78.83
2023-02-01T13:40:38.008Z,77.41
2023-02-01T13:43:12.311Z,77.70
2023-02-01T13:45:46.364Z,81.11
2023-02-01T13:48:23.434Z,81.25
2023-02-01T13:50:54.173Z,80.89
2023-02-01T13:53:27.972Z,79.36
2023-02-01T13:56:01.279Z,79.23
2023-02-01T13:58:34.215Z,78.65
2023-02-01T14:01:46.480Z,77.53
2023-02-01T14:04:52.296Z,78.90
2023-02-01T14:07:24.179Z,79.55
2023-02-01T14:09:51.589Z,81.52
2023-02-01T14:12:46.861Z,84.24
2023-02-01T14:15:28.809Z,86.33
2023-02-01T14:17:56.810Z,85.33
2023-02-01T14:20:49.815Z,83.54
2023-02-01T14:23:20.443Z,84.00
2023-02-01T14:26:00.512Z,82.95
2023-02-01T14:28:32.250Z,83.30
2023-02-01T14:31:00.763Z,86.29
2023-02-01T14:33:30.042Z,87.09
2023-02-01T14:36:04.896Z,86.51
2023-02-01T14:38:33.811Z,85.33
2023-02-01T14:41:25.782Z,83.13
2023-02-01T14:44:23.808Z,83.49
2023-02-01T14:47:31.722Z,82.89
2023-02-01T14:50:16.037Z,82.04
2023-02-01T14:52:47.369Z,84.67
2023-02-01T14:55:19.694Z,81.12
2023-02-01T14:57:50.472Z,84.07
2023-02-01T15:00:23.556Z,84.11
2023-02-01T15:02:51.943Z,82.42
2023-02-01T15:05:33.829Z,83.78
2023-02-01T15:08:07.457Z,83.02
2023-02-01T15:10:42.596Z,83.04
2023-02-01T15:13:21.213Z,86.81
2023-02-01T15:16:06.965Z,89.04
2023-02-01T15:18:34.700Z,89.88
2023-02-01T15:21:09.351Z,88.61
2023-02-01T15:23:52.041Z,86.92
2023-02-01T15:26:29.955Z,90.78
2023-02-01T15:28:59.082Z,90.32
2023-02-01T15:31:36.966Z,88.86
2023-02-01T15:34:05.090Z,90.63
2023-02-01T15:36:33.283Z,92.01
2023-02-01T15:39:20.948Z,91.25
2023-02-01T15:41:50.964Z,93.82
2023-02-01T15:44:30.678Z,92.33
2023-02-01T15:47:00.662Z,92.19
2023-02-01T15:49:30.777Z,92.00
2023-02-01T15:52:00.334Z,91.06
2023-02-01T15:54:32.058Z,93.15
2023-02-01T15:57:03.063Z,94.94
2023-02-01T15:59:35.195Z,96.87
2023-02-01T16:02:04.246Z,97.87
2023-02-01T16:04:32.220Z,98.48
2023-02-01T16:07:04.218Z,97.81
2023-02-01T16:09:40.793Z,97.18
2023-02-01T16:12:28.629Z,96.62
2023-02-01T16:14:56.099Z,96.10
2023-02-01T16:17:24.849Z,95.37
2023-02-01T16:19:52.481Z,95.43
2023-02-01T16:22:20.121Z,92.30
2023-02-01T16:24:47.542Z,91.95
2023-02-01T16:27:14.956Z,91.21
2023-02-01T16:29:43.265Z,89.85
2023-02-01T16:32:18.750Z,91.00
2023-02-01T16:34:48.340Z,91.83
2023-02-01T16:37:19.020Z,91.58
2023-02-01T16:39:46.481Z,91.27
2023-02-01T16:42:15.115Z,93.34
2023-02-01T16:44:43.611Z,93.78
2023-02-01T16:47:16.469Z,93.68
2023-02-01T16:49:44.914Z,92.79
2023-02-01T16:52:19.526Z,92.09
2023-02-01T16:54:47.182Z,94.07
2023-02-01T16:57:16.437Z,92.78
2023-02-01T16:59:44.985Z,91.97
2023-02-01T17:02:14.223Z,91.76
2023-02-01T17:04:41.784Z,92.39
2023-02-01T17:07:13.883Z,91.91
2023-02-01T17:09:42.631Z,92.69
2023-02-01T17:12:23.274Z,93.44
2023-02-01T17:14:52.241Z,93.69
2023-02-01T17:17:32.746Z,94.30
2023-02-01T17:20:06.921Z,94.82
2023-02-01T17:22:34.754Z,93.65
2023-02-01T17:25:05.592Z,92.79
2023-02-01T17:27:34.065Z,94.49
2023-02-01T17:30:04.168Z,93.19
2023-02-01T17:32:32.269Z,92.64
2023-02-01T17:34:59.756Z,94.13
2023-02-01T17:37:30.065Z,92.51
2023-02-01T17:39:57.949Z,92.15
2023-02-01T17:42:28.147Z,93.64
2023-02-01T17:44:58.076Z,94.07
2023-02-01T17:47:25.606Z,94.55
2023-02-01T17:49:56.540Z,94.92
2023-02-01T17:52:26.055Z,93.53
2023-02-01T17:54:54.120Z,95.10
2023-02-01T17:57:22.135Z,92.92
2023-02-01T17:59:52.130Z,95.12
2023-02-01T18:02:21.485Z,95.67
2023-02-01T18:04:51.104Z,94.55
2023-02-01T18:07:19.159Z,94.90
2023-02-01T18:09:46.643Z,94.27
2023-02-01T18:12:20.197Z,94.30
2023-02-01T18:14:47.742Z,95.30
2023-02-01T18:17:16.548Z,95.56
2023-02-01T18:19:43.974Z,94.68
2023-02-01T18:22:17.494Z,93.45
2023-02-01T18:24:44.925Z,94.37
2023-02-01T18:27:12.397Z,95.33
2023-02-01T18:29:39.838Z,94.57
2023-02-01T18:32:07.242Z,94.57
2023-02-01T18:34:35.975Z,94.58
2023-02-01T18:37:03.492Z,94.61
2023-02-01T18:39:30.909Z,94.51
2023-02-01T18:41:59.547Z,94.60
2023-02-01T18:44:26.998Z,95.76
2023-02-01T18:46:54.491Z,94.54
2023-02-01T18:49:21.881Z,93.73
2023-02-01T18:51:52.108Z,93.01
2023-02-01T18:54:19.800Z,93.02
2023-02-01T18:56:47.271Z,92.37
2023-02-01T18:59:14.707Z,91.87
2023-02-01T19:01:42.189Z,91.43
2023-02-01T19:04:17.819Z,92.35
2023-02-01T19:06:47.242Z,93.18
2023-02-01T19:09:16.027Z,93.54
2023-02-01T19:11:43.498Z,93.45
2023-02-01T19:14:10.893Z,92.09
2023-02-01T19:16:39.738Z,92.44
2023-02-01T19:19:07.173Z,91.88
2023-02-01T19:21:34.595Z,91.03
2023-02-01T19:24:02.038Z,90.42
2023-02-01T19:26:30.830Z,89.51
2023-02-01T19:28:58.972Z,89.12
2023-02-01T19:31:26.598Z,87.66
2023-02-01T19:33:55.311Z,87.07
2023-02-01T19:36:22.898Z,90.12
2023-02-01T19:38:50.862Z,90.25
2023-02-01T19:41:18.293Z,89.47
2023-02-01T19:43:47.438Z,89.71
2023-02-01T19:46:14.998Z,89.42
2023-02-01T19:48:42.520Z,88.34
2023-02-01T19:51:10.050Z,90.30
2023-02-01T19:53:37.421Z,89.42
2023-02-01T19:56:05.352Z,89.58
2023-02-01T19:58:32.821Z,89.60
2023-02-01T20:01:01.137Z,90.58
2023-02-01T20:03:29.100Z,89.25
2023-02-01T20:05:59.069Z,88.07
2023-02-01T20:08:26.779Z,88.95
2023-02-01T20:10:54.437Z,88.87
2023-02-01T20:13:22.026Z,89.79
2023-02-01T20:15:49.467Z,87.40
2023-02-01T20:18:18.424Z,87.68
2023-02-01T20:20:45.843Z,89.02
2023-02-01T20:23:13.266Z,86.60
2023-02-01T20:25:41.626Z,87.31
2023-02-01T20:28:09.057Z,88.46
2023-02-01T20:30:36.609Z,86.15
2023-02-01T20:33:04.400Z,87.71
2023-02-01T20:35:33.232Z,90.13
2023-02-01T20:38:01.811Z,89.88
2023-02-01T20:40:31.306Z,87.53
2023-02-01T20:42:58.848Z,89.34
2023-02-01T20:45:27.103Z,88.85
2023-02-01T20:47:54.636Z,88.91
2023-02-01T20:50:22.176Z,89.75
2023-02-01T20:52:51.055Z,89.45
2023-02-01T20:55:18.617Z,88.79
2023-02-01T20:57:46.051Z,88.70
2023-02-01T21:00:15.702Z,89.27
2023-02-01T21:02:43.108Z,87.72
2023-02-01T21:05:11.321Z,87.53
2023-02-01T21:07:39.141Z,88.48
2023-02-01T21:10:09.121Z,89.32
2023-02-01T21:12:36.890Z,88.97
2023-02-01T21:15:05.793Z,89.58
2023-02-01T21:17:33.896Z,88.62
2023-02-01T21:20:01.347Z,87.64
2023-02-01T21:22:28.978Z,86.89
2023-02-01T21:24:56.380Z,87.08
2023-02-01T21:27:25.269Z,86.87
2023-02-01T21:29:52.687Z,88.11
2023-02-01T21:32:20.275Z,87.85
2023-02-01T21:34:47.760Z,88.28
2023-02-01T21:37:15.192Z,87.64
2023-02-01T21:39:42.618Z,87.15
2023-02-01T21:42:17.535Z,87.46
2023-02-01T21:44:47.502Z,86.70
2023-02-01T21:47:17.297Z,86.90
2023-02-01T21:49:45.618Z,87.53
2023-02-01T21:52:13.814Z,87.84
2023-02-01T21:54:41.262Z,86.92
2023-02-01T21:57:11.938Z,88.64
2023-02-01T21:59:40.165Z,88.28
2023-02-01T22:02:13.371Z,86.21
2023-02-01T22:04:40.830Z,86.76
2023-02-01T22:07:08.785Z,86.05
2023-02-01T22:09:37.652Z,85.89
2023-02-01T22:12:05.482Z,85.24
2023-02-01T22:14:33.439Z,87.77
2023-02-01T22:17:01.411Z,87.17
2023-02-01T22:19:30.179Z,87.30
2023-02-01T22:21:57.639Z,85.75
2023-02-01T22:24:25.319Z,86.33
2023-02-01T22:26:52.779Z,86.17
2023-02-01T22:29:20.286Z,87.01
2023-02-01T22:31:48.407Z,85.85
2023-02-01T22:34:16.506Z,84.76
2023-02-01T22:36:48.618Z,88.11
2023-02-01T22:39:16.125Z,85.11
2023-02-01T22:41:43.581Z,84.92
2023-02-01T22:44:11.021Z,86.77
2023-02-01T22:46:38.461Z,84.85
2023-02-01T22:49:05.996Z,84.92
2023-02-01T22:51:34.737Z,83.58
2023-02-01T22:54:03.890Z,84.52
2023-02-01T22:56:34.687Z,85.57
2023-02-01T22:59:06.065Z,84.88
2023-02-01T23:01:34.473Z,83.07
2023-02-01T23:04:03.627Z,84.87
2023-02-01T23:06:32.651Z,83.62
2023-02-01T23:09:04.101Z,86.10
2023-02-01T23:11:32.034Z,87.22
2023-02-01T23:13:59.499Z,86.57
2023-02-01T23:16:27.254Z,87.77
2023-02-01T23:18:54.972Z,89.14
2023-02-01T23:21:24.177Z,86.50
2023-02-01T23:23:54.848Z,87.32
2023-02-01T23:26:25.010Z,89.17
2023-02-01T23:28:54.095Z,87.48
2023-02-01T23:31:23.629Z,100.00
2023-02-01T23:33:54.850Z,94.95
2023-02-01T23:36:23.711Z,87.38
2023-02-01T23:38:52.215Z,86.76
2023-02-01T23:41:21.622Z,83.55
2023-02-01T23:44:00.545Z,76.93
2023-02-01T23:46:32.007Z,87.05
2023-02-01T23:49:00.595Z,84.13
2023-02-01T23:51:28.605Z,75.88
2023-02-01T23:53:56.183Z,77.87
2023-02-01T23:56:25.776Z,77.27
2023-02-01T23:58:56.699Z,82.64
